Weather at Adana Şakirpaşa Airport

Public forecast

Using degrees Celsius for public forecast. Weather courtesy of forecast.io.

Current aviation weather report (METAR) for Adana Şakirpaşa Airport

Report is more than 6 hours old.

2022/11/14 15:20 (retrieved 2 years ago)

LTAF 141520Z 23004KT CAVOK 19/09 Q1016 NOSIG RMK RWY23 25005KT SKC

Aviation forecast (TAF) for Adana Şakirpaşa Airport

Forecast is more than 12 hours old.

2023/02/22 18:03 (retrieved 1 year ago)

TAF LTAF 221640Z 2218/2318 VRB02KT 4000 BR NSC BECMG 2222/2224 CAVOK